Check out our new PWSWeather beta!
PWSweather.com
Personal Weather Stations
Station Observations
KUCEROV1
Npr Větrníky, VyskovCZ 68201

Npr VětrníkyVyskovCZ 68201

Lat: 49.219314, Lon: 17.009937

Elevation: 1001

Station Type: WH2080

Latest ConditionsUpdated 7:45:00 PM GMT+01:01 Monday, Feb 24, 2020
Currently Today's Max Today's Min Today's Average
Temperature 43.0°F6.1°C 50.6°F10.3°C 37.6°F3.1°C 44.2°F6.8°C
Dew Point 31.3°F-0.4°C 41.6°F5.3°C 27.4°F-2.6°C 30.9°F-0.6°C
Winds 5.6 mph SW9.0 kmh SW 20.2 mph -32.5 kmh - - 6.5 mph 10.5 kmh
Wind Gusts 9.2 mph14.8 kmh 34.2 mph55.0 kmh - -
Humidity 63% 81% 45% 60%
Pressure 29.99 in1015.6 mb 30.22 in1023.4 mb 29.79 in1008.8 mb -
Precipitation - 0.01 in0.3 mm - -
Hour Temp Dew Point Humidity Winds Wind Gusts Pressure Precip Precip Rate Daily Precip Total
07:45 PM 43.0°F6.1°C 31.3°F-0.4°C 63% 5.6 mph SW9.0 kmh SW 9.2 mph14.8 kmh 29.99 in1015.6 mb 0.00 in0.0 mm 0.00 in0.0 mm 0.01 in0.3 mm
07:40 PM 42.9°F6.1°C 31.2°F-0.4°C 63% 3.9 mph SW6.3 kmh SW 8.3 mph13.4 kmh 29.99 in1015.6 mb 0.00 in0.0 mm 0.00 in0.0 mm 0.01 in0.3 mm
07:35 PM 42.8°F6.0°C 30.7°F-0.7°C 62% 5.6 mph WSW9.0 kmh WSW 8.3 mph13.4 kmh 29.99 in1015.6 mb 0.00 in0.0 mm 0.00 in0.0 mm 0.01 in0.3 mm
07:30 PM 42.6°F5.9°C 30.8°F-0.7°C 63% 5.1 mph SW8.2 kmh SW 8.3 mph13.4 kmh 29.99 in1015.6 mb 0.00 in0.0 mm 0.00 in0.0 mm 0.01 in0.3 mm
07:25 PM 42.5°F5.8°C 30.1°F-1.1°C 61% 5.0 mph WSW8.0 kmh WSW 9.2 mph14.8 kmh 30.00 in1015.9 mb 0.00 in0.0 mm 0.00 in0.0 mm 0.01 in0.3 mm
07:20 PM 42.4°F5.8°C 30.0°F-1.1°C 61% 4.0 mph SW6.4 kmh SW 8.3 mph13.4 kmh 30.01 in1016.3 mb 0.00 in0.0 mm 0.00 in0.0 mm 0.01 in0.3 mm
07:15 PM 42.6°F5.9°C 30.4°F-0.9°C 62% 3.7 mph SSW6.0 kmh SSW 6.0 mph9.7 kmh 30.01 in1016.3 mb 0.00 in0.0 mm 0.00 in0.0 mm 0.01 in0.3 mm
07:10 PM 42.6°F5.9°C 30.9°F-0.6°C 63% 2.7 mph SW4.3 kmh SW 6.0 mph9.7 kmh 30.02 in1016.6 mb 0.00 in0.0 mm 0.00 in0.0 mm 0.01 in0.3 mm
07:05 PM 42.6°F5.9°C 30.9°F-0.6°C 63% 2.6 mph SSE4.2 kmh SSE 5.4 mph8.7 kmh 30.02 in1016.6 mb 0.00 in0.0 mm 0.00 in0.0 mm 0.01 in0.3 mm
07:00 PM 42.6°F5.9°C 30.9°F-0.6°C 63% 2.4 mph WSW3.9 kmh WSW 6.0 mph9.7 kmh 30.02 in1016.6 mb 0.00 in0.0 mm 0.00 in0.0 mm 0.01 in0.3 mm
06:55 PM 42.7°F5.9°C 30.8°F-0.7°C 62% 1.8 mph S2.9 kmh S 4.5 mph7.2 kmh 30.02 in1016.6 mb 0.00 in0.0 mm 0.00 in0.0 mm 0.01 in0.3 mm
06:50 PM 42.8°F6.0°C 30.7°F-0.7°C 62% 2.4 mph S3.9 kmh S 5.4 mph8.7 kmh 30.02 in1016.6 mb 0.00 in0.0 mm 0.00 in0.0 mm 0.01 in0.3 mm
06:45 PM 43.0°F6.1°C 30.9°F-0.6°C 62% 2.8 mph SSE4.5 kmh SSE 5.4 mph8.7 kmh 30.02 in1016.6 mb 0.00 in0.0 mm 0.00 in0.0 mm 0.01 in0.3 mm
06:40 PM 43.1°F6.2°C 31.0°F-0.6°C 62% 2.8 mph SSE4.5 kmh SSE 5.4 mph8.7 kmh 30.02 in1016.6 mb 0.00 in0.0 mm 0.00 in0.0 mm 0.01 in0.3 mm
06:35 PM 43.0°F6.1°C 30.4°F-0.9°C 61% 3.1 mph SE5.0 kmh SE 5.4 mph8.7 kmh 30.03 in1016.9 mb 0.00 in0.0 mm 0.00 in0.0 mm 0.01 in0.3 mm
06:30 PM 43.1°F6.2°C 29.7°F-1.3°C 59% 2.6 mph SW4.2 kmh SW 6.0 mph9.7 kmh 30.03 in1016.9 mb 0.00 in0.0 mm 0.00 in0.0 mm 0.01 in0.3 mm
06:25 PM 43.2°F6.2°C 30.0°F-1.1°C 60% 2.8 mph SSE4.5 kmh SSE 6.9 mph11.1 kmh 30.03 in1016.9 mb 0.00 in0.0 mm 0.00 in0.0 mm 0.01 in0.3 mm
06:20 PM 43.2°F6.2°C 29.9°F-1.2°C 59% 2.7 mph S4.3 kmh S 5.4 mph8.7 kmh 30.04 in1017.3 mb 0.00 in0.0 mm 0.00 in0.0 mm 0.01 in0.3 mm
06:15 PM 43.3°F6.3°C 29.7°F-1.3°C 58% 1.9 mph WSW3.1 kmh WSW 4.5 mph7.2 kmh 30.04 in1017.3 mb 0.00 in0.0 mm 0.00 in0.0 mm 0.01 in0.3 mm
06:10 PM 43.6°F6.4°C 29.2°F-1.6°C 57% 1.7 mph SW2.7 kmh SW 3.8 mph6.1 kmh 30.04 in1017.3 mb 0.00 in0.0 mm 0.00 in0.0 mm 0.01 in0.3 mm
06:05 PM 43.7°F6.5°C 29.0°F-1.7°C 56% 1.6 mph S2.6 kmh S 3.8 mph6.1 kmh 30.05 in1017.6 mb 0.00 in0.0 mm 0.00 in0.0 mm 0.01 in0.3 mm
06:00 PM 43.9°F6.6°C 28.9°F-1.7°C 55% 2.7 mph SW4.3 kmh SW 5.4 mph8.7 kmh 30.05 in1017.6 mb 0.00 in0.0 mm 0.00 in0.0 mm 0.01 in0.3 mm
05:55 PM 44.1°F6.7°C 28.6°F-1.9°C 54% 3.6 mph SW5.8 kmh SW 6.9 mph11.1 kmh 30.05 in1017.6 mb 0.00 in0.0 mm 0.00 in0.0 mm 0.01 in0.3 mm
05:50 PM 44.2°F6.8°C 28.3°F-2.1°C 53% 4.4 mph SW7.1 kmh SW 8.3 mph13.4 kmh 30.05 in1017.6 mb 0.00 in0.0 mm 0.00 in0.0 mm 0.01 in0.3 mm
05:45 PM 44.3°F6.8°C 28.3°F-2.1°C 53% 4.2 mph WSW6.8 kmh WSW 7.6 mph12.2 kmh 30.05 in1017.6 mb 0.00 in0.0 mm 0.00 in0.0 mm 0.01 in0.3 mm
05:40 PM 44.4°F6.9°C 28.4°F-2.0°C 53% 4.0 mph SW6.4 kmh SW 9.8 mph15.8 kmh 30.05 in1017.6 mb 0.00 in0.0 mm 0.00 in0.0 mm 0.01 in0.3 mm
05:35 PM 44.5°F6.9°C 28.2°F-2.1°C 52% 4.6 mph WSW7.4 kmh WSW 9.2 mph14.8 kmh 30.05 in1017.6 mb 0.00 in0.0 mm 0.00 in0.0 mm 0.01 in0.3 mm
05:30 PM 44.6°F7.0°C 28.4°F-2.0°C 53% 4.7 mph SW7.6 kmh SW 9.8 mph15.8 kmh 30.05 in1017.6 mb 0.00 in0.0 mm 0.00 in0.0 mm 0.01 in0.3 mm
05:25 PM 44.7°F7.1°C 28.6°F-1.9°C 53% 4.8 mph W7.7 kmh W 8.3 mph13.4 kmh 30.06 in1017.9 mb 0.00 in0.0 mm 0.00 in0.0 mm 0.01 in0.3 mm
05:20 PM 44.8°F7.1°C 28.9°F-1.7°C 53% 4.1 mph WSW6.6 kmh WSW 8.3 mph13.4 kmh 30.06 in1017.9 mb 0.00 in0.0 mm 0.00 in0.0 mm 0.01 in0.3 mm
05:15 PM 44.9°F7.2°C 29.3°F-1.5°C 54% 4.8 mph WSW7.7 kmh WSW 9.2 mph14.8 kmh 30.06 in1017.9 mb 0.00 in0.0 mm 0.00 in0.0 mm 0.01 in0.3 mm
05:10 PM 45.1°F7.3°C 29.0°F-1.7°C 53% 3.8 mph SW6.1 kmh SW 8.3 mph13.4 kmh 30.07 in1018.3 mb 0.00 in0.0 mm 0.00 in0.0 mm 0.01 in0.3 mm
05:05 PM 45.1°F7.3°C 29.0°F-1.7°C 53% 2.9 mph W4.7 kmh W 5.4 mph8.7 kmh 30.07 in1018.3 mb 0.00 in0.0 mm 0.00 in0.0 mm 0.01 in0.3 mm
05:00 PM 45.3°F7.4°C 29.2°F-1.6°C 53% 4.2 mph WNW6.8 kmh WNW 7.6 mph12.2 kmh 30.07 in1018.3 mb 0.00 in0.0 mm 0.00 in0.0 mm 0.01 in0.3 mm
04:55 PM 45.5°F7.5°C 29.4°F-1.4°C 53% 3.7 mph WSW6.0 kmh WSW 7.6 mph12.2 kmh 30.07 in1018.3 mb 0.00 in0.0 mm 0.00 in0.0 mm 0.01 in0.3 mm
04:50 PM 45.5°F7.5°C 29.2°F-1.6°C 53% 4.7 mph WSW7.6 kmh WSW 8.3 mph13.4 kmh 30.07 in1018.3 mb 0.00 in0.0 mm 0.00 in0.0 mm 0.01 in0.3 mm
04:45 PM 45.6°F7.6°C 29.0°F-1.7°C 52% 4.4 mph WSW7.1 kmh WSW 8.3 mph13.4 kmh 30.07 in1018.3 mb 0.00 in0.0 mm 0.00 in0.0 mm 0.01 in0.3 mm
04:40 PM 45.7°F7.6°C 29.4°F-1.4°C 52% 4.4 mph WSW7.1 kmh WSW 9.8 mph15.8 kmh 30.08 in1018.6 mb 0.00 in0.0 mm 0.00 in0.0 mm 0.01 in0.3 mm
04:35 PM 45.9°F7.7°C 29.5°F-1.4°C 52% 3.7 mph SW6.0 kmh SW 6.0 mph9.7 kmh 30.08 in1018.6 mb 0.00 in0.0 mm 0.00 in0.0 mm 0.01 in0.3 mm
04:30 PM 45.9°F7.7°C 29.3°F-1.5°C 52% 4.1 mph SW6.6 kmh SW 7.6 mph12.2 kmh 30.09 in1019.0 mb 0.00 in0.0 mm 0.00 in0.0 mm 0.01 in0.3 mm
04:25 PM 46.0°F7.8°C 29.0°F-1.7°C 51% 4.7 mph SW7.6 kmh SW 9.2 mph14.8 kmh 30.09 in1019.0 mb 0.00 in0.0 mm 0.00 in0.0 mm 0.01 in0.3 mm
04:20 PM 46.2°F7.9°C 29.0°F-1.7°C 51% 4.9 mph SW7.9 kmh SW 9.2 mph14.8 kmh 30.09 in1019.0 mb 0.00 in0.0 mm 0.00 in0.0 mm 0.01 in0.3 mm
04:15 PM 46.3°F7.9°C 29.2°F-1.6°C 51% 3.6 mph WSW5.8 kmh WSW 8.3 mph13.4 kmh 30.09 in1019.0 mb 0.00 in0.0 mm 0.00 in0.0 mm 0.01 in0.3 mm
04:10 PM 46.5°F8.1°C 28.8°F-1.8°C 50% 4.0 mph SW6.4 kmh SW 6.9 mph11.1 kmh 30.09 in1019.0 mb 0.00 in0.0 mm 0.00 in0.0 mm 0.01 in0.3 mm
04:05 PM 46.6°F8.1°C 28.5°F-1.9°C 49% 4.5 mph SW7.2 kmh SW 6.9 mph11.1 kmh 30.10 in1019.3 mb 0.00 in0.0 mm 0.00 in0.0 mm 0.01 in0.3 mm
04:00 PM 46.7°F8.2°C 28.5°F-1.9°C 49% 3.8 mph SW6.1 kmh SW 6.9 mph11.1 kmh 30.09 in1019.0 mb 0.00 in0.0 mm 0.00 in0.0 mm 0.01 in0.3 mm
03:55 PM 46.8°F8.2°C 28.6°F-1.9°C 49% 3.6 mph W5.8 kmh W 6.9 mph11.1 kmh 30.10 in1019.3 mb 0.00 in0.0 mm 0.00 in0.0 mm 0.01 in0.3 mm
03:50 PM 46.9°F8.3°C 28.6°F-1.9°C 49% 4.7 mph W7.6 kmh W 9.2 mph14.8 kmh 30.10 in1019.3 mb 0.00 in0.0 mm 0.00 in0.0 mm 0.01 in0.3 mm
03:45 PM 46.9°F8.3°C 28.6°F-1.9°C 49% 4.2 mph WSW6.8 kmh WSW 9.8 mph15.8 kmh 30.10 in1019.3 mb 0.00 in0.0 mm 0.00 in0.0 mm 0.01 in0.3 mm
03:40 PM 47.1°F8.4°C 29.0°F-1.7°C 49% 5.0 mph W8.0 kmh W 10.7 mph17.2 kmh 30.11 in1019.6 mb 0.00 in0.0 mm 0.00 in0.0 mm 0.01 in0.3 mm
03:35 PM 47.1°F8.4°C 29.0°F-1.7°C 49% 6.0 mph W9.7 kmh W 13.0 mph20.9 kmh 30.11 in1019.6 mb 0.00 in0.0 mm 0.00 in0.0 mm 0.01 in0.3 mm
03:30 PM 47.1°F8.4°C 28.9°F-1.7°C 49% 6.8 mph W10.9 kmh W 13.0 mph20.9 kmh 30.11 in1019.6 mb 0.00 in0.0 mm 0.00 in0.0 mm 0.01 in0.3 mm
03:25 PM 47.0°F8.3°C 28.8°F-1.8°C 49% 5.8 mph WNW9.3 kmh WNW 10.7 mph17.2 kmh 30.11 in1019.6 mb 0.00 in0.0 mm 0.00 in0.0 mm 0.01 in0.3 mm
03:20 PM 46.8°F8.2°C 28.7°F-1.8°C 49% 3.8 mph WSW6.1 kmh WSW 8.3 mph13.4 kmh 30.11 in1019.6 mb 0.00 in0.0 mm 0.00 in0.0 mm 0.01 in0.3 mm
03:15 PM 46.8°F8.2°C 28.6°F-1.9°C 49% 3.1 mph SW5.0 kmh SW 6.0 mph9.7 kmh 30.11 in1019.6 mb 0.00 in0.0 mm 0.00 in0.0 mm 0.01 in0.3 mm
03:10 PM 46.6°F8.1°C 28.5°F-1.9°C 49% 4.8 mph W7.7 kmh W 9.2 mph14.8 kmh 30.10 in1019.3 mb 0.00 in0.0 mm 0.00 in0.0 mm 0.01 in0.3 mm
03:05 PM 46.6°F8.1°C 28.5°F-1.9°C 49% 4.9 mph WNW7.9 kmh WNW 8.3 mph13.4 kmh 30.10 in1019.3 mb 0.00 in0.0 mm 0.00 in0.0 mm 0.01 in0.3 mm
03:00 PM 46.7°F8.2°C 28.7°F-1.8°C 49% 6.0 mph SSW9.7 kmh SSW 9.2 mph14.8 kmh 30.11 in1019.6 mb 0.00 in0.0 mm 0.00 in0.0 mm 0.01 in0.3 mm
02:55 PM 46.8°F8.2°C 28.6°F-1.9°C 49% 4.5 mph WSW7.2 kmh WSW 9.2 mph14.8 kmh 30.11 in1019.6 mb 0.00 in0.0 mm 0.00 in0.0 mm 0.01 in0.3 mm
02:50 PM 46.8°F8.2°C 28.5°F-1.9°C 49% 4.4 mph WSW7.1 kmh WSW 9.2 mph14.8 kmh 30.11 in1019.6 mb 0.00 in0.0 mm 0.00 in0.0 mm 0.01 in0.3 mm
02:45 PM 46.9°F8.3°C 28.3°F-2.1°C 48% 4.6 mph WSW7.4 kmh WSW 9.2 mph14.8 kmh 30.12 in1020.0 mb 0.00 in0.0 mm 0.00 in0.0 mm 0.01 in0.3 mm
02:40 PM 47.1°F8.4°C 28.5°F-1.9°C 48% 6.9 mph W11.1 kmh W 13.0 mph20.9 kmh 30.12 in1020.0 mb 0.00 in0.0 mm 0.00 in0.0 mm 0.01 in0.3 mm
02:35 PM 47.4°F8.6°C 28.7°F-1.8°C 48% 6.0 mph W9.7 kmh W 10.7 mph17.2 kmh 30.12 in1020.0 mb 0.00 in0.0 mm 0.00 in0.0 mm 0.01 in0.3 mm
02:30 PM 47.6°F8.7°C 28.5°F-1.9°C 47% 6.0 mph WSW9.7 kmh WSW 10.7 mph17.2 kmh 30.11 in1019.6 mb 0.00 in0.0 mm 0.00 in0.0 mm 0.01 in0.3 mm
02:25 PM 47.9°F8.8°C 28.9°F-1.7°C 48% 6.0 mph WSW9.7 kmh WSW 9.8 mph15.8 kmh 30.12 in1020.0 mb 0.00 in0.0 mm 0.00 in0.0 mm 0.01 in0.3 mm
02:20 PM 48.3°F9.1°C 29.0°F-1.7°C 47% 5.8 mph WNW9.3 kmh WNW 10.7 mph17.2 kmh 30.12 in1020.0 mb 0.00 in0.0 mm 0.00 in0.0 mm 0.01 in0.3 mm
02:15 PM 48.5°F9.2°C 29.2°F-1.6°C 47% 5.9 mph SW9.5 kmh SW 9.8 mph15.8 kmh 30.12 in1020.0 mb 0.00 in0.0 mm 0.00 in0.0 mm 0.01 in0.3 mm
02:10 PM 48.7°F9.3°C 29.4°F-1.4°C 47% 5.7 mph WSW9.2 kmh WSW 9.8 mph15.8 kmh 30.13 in1020.3 mb 0.00 in0.0 mm 0.00 in0.0 mm 0.01 in0.3 mm
02:05 PM 48.9°F9.4°C 29.6°F-1.3°C 47% 5.4 mph NW8.7 kmh NW 7.6 mph12.2 kmh 30.13 in1020.3 mb 0.00 in0.0 mm 0.00 in0.0 mm 0.01 in0.3 mm
02:00 PM 49.3°F9.6°C 29.7°F-1.3°C 46% 5.6 mph WSW9.0 kmh WSW 9.2 mph14.8 kmh 30.13 in1020.3 mb 0.00 in0.0 mm 0.00 in0.0 mm 0.01 in0.3 mm
01:55 PM 50.0°F10.0°C 29.7°F-1.3°C 45% 5.0 mph NW8.0 kmh NW 11.4 mph18.3 kmh 30.13 in1020.3 mb 0.00 in0.0 mm 0.00 in0.0 mm 0.01 in0.3 mm
01:50 PM 50.5°F10.3°C 30.3°F-0.9°C 46% 7.5 mph WSW12.1 kmh WSW 13.6 mph21.9 kmh 30.13 in1020.3 mb 0.00 in0.0 mm 0.00 in0.0 mm 0.01 in0.3 mm
01:45 PM 50.5°F10.3°C 30.8°F-0.7°C 46% 6.1 mph W9.8 kmh W 9.8 mph15.8 kmh 30.13 in1020.3 mb 0.00 in0.0 mm 0.00 in0.0 mm 0.01 in0.3 mm
01:40 PM 50.5°F10.3°C 31.1°F-0.5°C 47% 6.1 mph W9.8 kmh W 13.0 mph20.9 kmh 30.14 in1020.7 mb 0.00 in0.0 mm 0.00 in0.0 mm 0.01 in0.3 mm
01:35 PM 50.5°F10.3°C 32.1°F0.1°C 49% 4.8 mph W7.7 kmh W 8.3 mph13.4 kmh 30.14 in1020.7 mb 0.00 in0.0 mm 0.00 in0.0 mm 0.01 in0.3 mm
01:30 PM 50.2°F10.1°C 31.9°F-0.1°C 49% 4.4 mph W7.1 kmh W 10.7 mph17.2 kmh 30.13 in1020.3 mb 0.00 in0.0 mm 0.00 in0.0 mm 0.01 in0.3 mm
01:25 PM 50.1°F10.1°C 31.4°F-0.3°C 48% 3.7 mph N6.0 kmh N 8.3 mph13.4 kmh 30.13 in1020.3 mb 0.00 in0.0 mm 0.00 in0.0 mm 0.01 in0.3 mm
01:20 PM 49.9°F9.9°C 31.1°F-0.5°C 48% 1.0 mph NNW1.6 kmh NNW 2.2 mph3.5 kmh 30.14 in1020.7 mb 0.00 in0.0 mm 0.00 in0.0 mm 0.01 in0.3 mm
01:15 PM 49.9°F9.9°C 30.8°F-0.7°C 48% 3.2 mph SW5.1 kmh SW 5.4 mph8.7 kmh 30.14 in1020.7 mb 0.00 in0.0 mm 0.00 in0.0 mm 0.01 in0.3 mm
01:10 PM 49.9°F9.9°C 32.1°F0.1°C 50% 2.9 mph SW4.7 kmh SW 6.0 mph9.7 kmh 30.14 in1020.7 mb 0.00 in0.0 mm 0.00 in0.0 mm 0.01 in0.3 mm
01:05 PM 49.2°F9.6°C 32.1°F0.1°C 52% 1.1 mph SW1.8 kmh SW 3.8 mph6.1 kmh 30.15 in1021.0 mb 0.00 in0.0 mm 0.00 in0.0 mm 0.01 in0.3 mm
01:00 PM 48.5°F9.2°C 31.2°F-0.4°C 51% 5.1 mph NW8.2 kmh NW 12.1 mph19.5 kmh 30.15 in1021.0 mb 0.00 in0.0 mm 0.00 in0.0 mm 0.01 in0.3 mm
12:55 PM 47.8°F8.8°C 30.8°F-0.7°C 51% 4.7 mph WSW7.6 kmh WSW 8.3 mph13.4 kmh 30.16 in1021.3 mb 0.00 in0.0 mm 0.00 in0.0 mm 0.01 in0.3 mm
12:50 PM 47.9°F8.8°C 30.3°F-0.9°C 50% 2.6 mph W4.2 kmh W 4.5 mph7.2 kmh 30.16 in1021.3 mb 0.00 in0.0 mm 0.00 in0.0 mm 0.01 in0.3 mm
12:45 PM 48.0°F8.9°C 30.1°F-1.1°C 50% 4.0 mph W6.4 kmh W 7.6 mph12.2 kmh 30.16 in1021.3 mb 0.00 in0.0 mm 0.00 in0.0 mm 0.01 in0.3 mm
12:40 PM 48.3°F9.1°C 29.6°F-1.3°C 48% 1.4 mph WSW2.3 kmh WSW 4.5 mph7.2 kmh 30.16 in1021.3 mb 0.00 in0.0 mm 0.00 in0.0 mm 0.01 in0.3 mm
12:35 PM 48.8°F9.3°C 30.0°F-1.1°C 48% 2.3 mph SSW3.7 kmh SSW 5.4 mph8.7 kmh 30.16 in1021.3 mb 0.00 in0.0 mm 0.00 in0.0 mm 0.01 in0.3 mm
12:30 PM 49.3°F9.6°C 30.6°F-0.8°C 48% 1.8 mph NNW2.9 kmh NNW 3.1 mph5.0 kmh 30.16 in1021.3 mb 0.00 in0.0 mm 0.00 in0.0 mm 0.01 in0.3 mm
12:25 PM 49.7°F9.8°C 30.3°F-0.9°C 47% 1.4 mph S2.3 kmh S 3.8 mph6.1 kmh 30.16 in1021.3 mb 0.00 in0.0 mm 0.00 in0.0 mm 0.01 in0.3 mm
12:20 PM 50.2°F10.1°C 30.3°F-0.9°C 46% 2.9 mph WSW4.7 kmh WSW 6.0 mph9.7 kmh 30.16 in1021.3 mb 0.00 in0.0 mm 0.00 in0.0 mm 0.01 in0.3 mm
12:15 PM 50.5°F10.3°C 30.7°F-0.7°C 46% 2.1 mph SW3.4 kmh SW 6.0 mph9.7 kmh 30.17 in1021.7 mb 0.00 in0.0 mm 0.00 in0.0 mm 0.01 in0.3 mm
12:10 PM 50.4°F10.2°C 30.6°F-0.8°C 46% 2.6 mph NNW4.2 kmh NNW 6.0 mph9.7 kmh 30.17 in1021.7 mb 0.00 in0.0 mm 0.00 in0.0 mm 0.01 in0.3 mm
12:05 PM 50.4°F10.2°C 30.4°F-0.9°C 46% 2.2 mph NW3.5 kmh NW 3.8 mph6.1 kmh 30.17 in1021.7 mb 0.00 in0.0 mm 0.00 in0.0 mm 0.01 in0.3 mm
12:00 PM 50.6°F10.3°C 30.8°F-0.7°C 46% 4.7 mph W7.6 kmh W 9.8 mph15.8 kmh 30.18 in1022.0 mb 0.00 in0.0 mm 0.00 in0.0 mm 0.01 in0.3 mm
11:55 AM 50.6°F10.3°C 31.6°F-0.2°C 48% 5.6 mph WNW9.0 kmh WNW 11.4 mph18.3 kmh 30.18 in1022.0 mb 0.00 in0.0 mm 0.00 in0.0 mm 0.01 in0.3 mm
11:50 AM 50.4°F10.2°C 31.4°F-0.3°C 48% 2.5 mph NW4.0 kmh NW 6.9 mph11.1 kmh 30.18 in1022.0 mb 0.00 in0.0 mm 0.00 in0.0 mm 0.01 in0.3 mm
11:45 AM 50.2°F10.1°C 30.8°F-0.7°C 47% 5.1 mph WNW8.2 kmh WNW 10.7 mph17.2 kmh 30.18 in1022.0 mb 0.00 in0.0 mm 0.00 in0.0 mm 0.01 in0.3 mm
11:40 AM 50.2°F10.1°C 31.1°F-0.5°C 48% 5.7 mph W9.2 kmh W 12.1 mph19.5 kmh 30.18 in1022.0 mb 0.00 in0.0 mm 0.00 in0.0 mm 0.01 in0.3 mm
11:35 AM 50.2°F10.1°C 31.3°F-0.4°C 48% 5.7 mph W9.2 kmh W 10.7 mph17.2 kmh 30.18 in1022.0 mb 0.00 in0.0 mm 0.00 in0.0 mm 0.01 in0.3 mm
11:30 AM 50.1°F10.1°C 31.2°F-0.4°C 48% 4.4 mph WNW7.1 kmh WNW 9.2 mph14.8 kmh 30.18 in1022.0 mb 0.00 in0.0 mm 0.00 in0.0 mm 0.01 in0.3 mm
11:25 AM 49.9°F9.9°C 31.2°F-0.4°C 48% 3.7 mph N6.0 kmh N 7.6 mph12.2 kmh 30.18 in1022.0 mb 0.00 in0.0 mm 0.00 in0.0 mm 0.01 in0.3 mm
11:20 AM 49.8°F9.9°C 31.4°F-0.3°C 49% 4.2 mph WNW6.8 kmh WNW 11.4 mph18.3 kmh 30.18 in1022.0 mb 0.00 in0.0 mm 0.00 in0.0 mm 0.01 in0.3 mm
11:15 AM 49.8°F9.9°C 31.4°F-0.3°C 49% 5.6 mph NW9.0 kmh NW 9.8 mph15.8 kmh 30.18 in1022.0 mb 0.00 in0.0 mm 0.00 in0.0 mm 0.01 in0.3 mm
11:10 AM 50.0°F10.0°C 31.5°F-0.3°C 49% 6.0 mph NW9.7 kmh NW 12.1 mph19.5 kmh 30.18 in1022.0 mb 0.00 in0.0 mm 0.00 in0.0 mm 0.01 in0.3 mm
11:05 AM 49.9°F9.9°C 32.8°F0.4°C 52% 5.7 mph W9.2 kmh W 13.0 mph20.9 kmh 30.18 in1022.0 mb 0.00 in0.0 mm 0.00 in0.0 mm 0.01 in0.3 mm
11:00 AM 49.3°F9.6°C 32.4°F0.2°C 52% 4.5 mph WNW7.2 kmh WNW 9.8 mph15.8 kmh 30.18 in1022.0 mb 0.00 in0.0 mm 0.00 in0.0 mm 0.01 in0.3 mm
10:55 AM 49.0°F9.4°C 30.7°F-0.7°C 49% 6.1 mph W9.8 kmh W 11.4 mph18.3 kmh 30.18 in1022.0 mb 0.00 in0.0 mm 0.00 in0.0 mm 0.01 in0.3 mm
10:50 AM 49.2°F9.6°C 31.6°F-0.2°C 50% 6.1 mph NW9.8 kmh NW 10.7 mph17.2 kmh 30.18 in1022.0 mb 0.00 in0.0 mm 0.00 in0.0 mm 0.01 in0.3 mm
10:45 AM 49.0°F9.4°C 31.8°F-0.1°C 51% 2.9 mph WNW4.7 kmh WNW 9.2 mph14.8 kmh 30.18 in1022.0 mb 0.00 in0.0 mm 0.00 in0.0 mm 0.01 in0.3 mm
10:40 AM 48.6°F9.2°C 31.3°F-0.4°C 51% 3.8 mph NW6.1 kmh NW 10.7 mph17.2 kmh 30.19 in1022.4 mb 0.00 in0.0 mm 0.00 in0.0 mm 0.01 in0.3 mm
10:35 AM 48.2°F9.0°C 31.2°F-0.4°C 52% 4.8 mph NW7.7 kmh NW 11.4 mph18.3 kmh 30.19 in1022.4 mb 0.00 in0.0 mm 0.00 in0.0 mm 0.01 in0.3 mm
10:30 AM 47.7°F8.7°C 30.6°F-0.8°C 51% 4.1 mph WNW6.6 kmh WNW 9.2 mph14.8 kmh 30.19 in1022.4 mb 0.00 in0.0 mm 0.00 in0.0 mm 0.01 in0.3 mm
10:25 AM 47.6°F8.7°C 30.2°F-1.0°C 51% 8.7 mph WNW14.0 kmh WNW 18.3 mph29.5 kmh 30.19 in1022.4 mb 0.00 in0.0 mm 0.00 in0.0 mm 0.01 in0.3 mm
10:20 AM 47.8°F8.8°C 31.3°F-0.4°C 52% 6.0 mph WNW9.7 kmh WNW 10.7 mph17.2 kmh 30.19 in1022.4 mb 0.00 in0.0 mm 0.00 in0.0 mm 0.01 in0.3 mm
10:15 AM 47.7°F8.7°C 31.8°F-0.1°C 54% 4.4 mph W7.1 kmh W 9.2 mph14.8 kmh 30.19 in1022.4 mb 0.00 in0.0 mm 0.00 in0.0 mm 0.01 in0.3 mm
10:10 AM 47.3°F8.5°C 31.7°F-0.2°C 55% 4.8 mph NW7.7 kmh NW 9.2 mph14.8 kmh 30.19 in1022.4 mb 0.00 in0.0 mm 0.00 in0.0 mm 0.01 in0.3 mm
10:05 AM 47.1°F8.4°C 31.8°F-0.1°C 55% 6.0 mph NW9.7 kmh NW 9.2 mph14.8 kmh 30.19 in1022.4 mb 0.00 in0.0 mm 0.00 in0.0 mm 0.01 in0.3 mm
10:00 AM 46.9°F8.3°C 31.6°F-0.2°C 55% 5.4 mph WNW8.7 kmh WNW 12.1 mph19.5 kmh 30.19 in1022.4 mb 0.00 in0.0 mm 0.00 in0.0 mm 0.01 in0.3 mm
09:55 AM 46.6°F8.1°C 31.3°F-0.4°C 55% 5.0 mph WNW8.0 kmh WNW 9.8 mph15.8 kmh 30.19 in1022.4 mb 0.00 in0.0 mm 0.00 in0.0 mm 0.01 in0.3 mm
09:50 AM 46.2°F7.9°C 30.2°F-1.0°C 53% 5.6 mph W9.0 kmh W 9.8 mph15.8 kmh 30.20 in1022.7 mb 0.00 in0.0 mm 0.00 in0.0 mm 0.01 in0.3 mm
09:45 AM 46.2°F7.9°C 30.1°F-1.1°C 53% 7.5 mph WNW12.1 kmh WNW 14.5 mph23.3 kmh 30.20 in1022.7 mb 0.00 in0.0 mm 0.00 in0.0 mm 0.01 in0.3 mm
09:40 AM 46.6°F8.1°C 31.7°F-0.2°C 56% 9.4 mph W15.1 kmh W 15.9 mph25.6 kmh 30.20 in1022.7 mb 0.00 in0.0 mm 0.00 in0.0 mm 0.01 in0.3 mm
09:35 AM 46.3°F7.9°C 31.9°F-0.1°C 57% 7.5 mph WNW12.1 kmh WNW 13.0 mph20.9 kmh 30.20 in1022.7 mb 0.00 in0.0 mm 0.00 in0.0 mm 0.01 in0.3 mm
09:30 AM 45.5°F7.5°C 31.1°F-0.5°C 57% 5.4 mph NW8.7 kmh NW 10.7 mph17.2 kmh 30.21 in1023.0 mb 0.00 in0.0 mm 0.00 in0.0 mm 0.01 in0.3 mm
09:25 AM 44.8°F7.1°C 30.3°F-0.9°C 56% 4.6 mph NW7.4 kmh NW 10.7 mph17.2 kmh 30.21 in1023.0 mb 0.00 in0.0 mm 0.00 in0.0 mm 0.01 in0.3 mm
09:20 AM 44.2°F6.8°C 30.6°F-0.8°C 58% 5.4 mph WSW8.7 kmh WSW 11.4 mph18.3 kmh 30.21 in1023.0 mb 0.00 in0.0 mm 0.00 in0.0 mm 0.01 in0.3 mm
09:15 AM 43.4°F6.3°C 31.1°F-0.5°C 62% 7.2 mph W11.6 kmh W 12.1 mph19.5 kmh 30.21 in1023.0 mb 0.00 in0.0 mm 0.00 in0.0 mm 0.01 in0.3 mm
09:10 AM 42.1°F5.6°C 30.4°F-0.9°C 63% 3.6 mph WNW5.8 kmh WNW 7.6 mph12.2 kmh 30.21 in1023.0 mb 0.00 in0.0 mm 0.00 in0.0 mm 0.01 in0.3 mm
09:05 AM 41.1°F5.1°C 29.6°F-1.3°C 63% 2.5 mph NW4.0 kmh NW 6.0 mph9.7 kmh 30.22 in1023.4 mb 0.00 in0.0 mm 0.00 in0.0 mm 0.01 in0.3 mm
09:00 AM 40.4°F4.7°C 29.2°F-1.6°C 64% 3.3 mph NW5.3 kmh NW 5.4 mph8.7 kmh 30.22 in1023.4 mb 0.00 in0.0 mm 0.00 in0.0 mm 0.01 in0.3 mm
08:55 AM 39.9°F4.4°C 28.9°F-1.7°C 64% 2.9 mph W4.7 kmh W 5.4 mph8.7 kmh 30.22 in1023.4 mb 0.00 in0.0 mm 0.00 in0.0 mm 0.01 in0.3 mm
08:50 AM 39.5°F4.2°C 28.7°F-1.8°C 65% 1.8 mph NW2.9 kmh NW 5.4 mph8.7 kmh 30.21 in1023.0 mb 0.00 in0.0 mm 0.00 in0.0 mm 0.01 in0.3 mm
08:45 AM 39.1°F3.9°C 28.5°F-1.9°C 65% 2.6 mph W4.2 kmh W 6.0 mph9.7 kmh 30.21 in1023.0 mb 0.00 in0.0 mm 0.00 in0.0 mm 0.01 in0.3 mm
08:40 AM 38.9°F3.8°C 28.5°F-1.9°C 66% 2.9 mph W4.7 kmh W 6.9 mph11.1 kmh 30.21 in1023.0 mb 0.00 in0.0 mm 0.00 in0.0 mm 0.01 in0.3 mm
08:35 AM 38.6°F3.7°C 28.2°F-2.1°C 66% 1.2 mph WNW1.9 kmh WNW 3.8 mph6.1 kmh 30.21 in1023.0 mb 0.00 in0.0 mm 0.00 in0.0 mm 0.01 in0.3 mm
08:30 AM 38.4°F3.6°C 28.1°F-2.2°C 66% 5.9 mph N9.5 kmh N 12.1 mph19.5 kmh 30.21 in1023.0 mb 0.00 in0.0 mm 0.00 in0.0 mm 0.01 in0.3 mm
08:25 AM 38.2°F3.4°C 27.9°F-2.3°C 66% 3.7 mph WNW6.0 kmh WNW 16.8 mph27.0 kmh 30.20 in1022.7 mb 0.00 in0.0 mm 0.00 in0.0 mm 0.01 in0.3 mm
08:20 AM 38.1°F3.4°C 27.8°F-2.3°C 66% 4.1 mph N6.6 kmh N 9.8 mph15.8 kmh 30.20 in1022.7 mb 0.00 in0.0 mm 0.00 in0.0 mm 0.01 in0.3 mm
08:15 AM 38.0°F3.3°C 28.0°F-2.2°C 67% 1.9 mph NE3.1 kmh NE 6.9 mph11.1 kmh 30.20 in1022.7 mb 0.00 in0.0 mm 0.00 in0.0 mm 0.01 in0.3 mm
08:10 AM 37.9°F3.3°C 27.9°F-2.3°C 67% 3.1 mph N5.0 kmh N 12.1 mph19.5 kmh 30.20 in1022.7 mb 0.00 in0.0 mm 0.00 in0.0 mm 0.01 in0.3 mm
08:05 AM 37.8°F3.2°C 27.8°F-2.3°C 67% 2.2 mph E3.5 kmh E 3.8 mph6.1 kmh 30.20 in1022.7 mb 0.00 in0.0 mm 0.00 in0.0 mm 0.01 in0.3 mm
08:00 AM 37.8°F3.2°C 27.8°F-2.3°C 67% 4.7 mph SW7.6 kmh SW 15.9 mph25.6 kmh 30.19 in1022.4 mb 0.00 in0.0 mm 0.00 in0.0 mm 0.01 in0.3 mm
07:55 AM 37.8°F3.2°C 27.8°F-2.3°C 67% 4.5 mph NW7.2 kmh NW 10.7 mph17.2 kmh 30.18 in1022.0 mb 0.00 in0.0 mm 0.00 in0.0 mm 0.01 in0.3 mm
07:50 AM 37.8°F3.2°C 27.8°F-2.3°C 67% 4.1 mph NW6.6 kmh NW 10.7 mph17.2 kmh 30.18 in1022.0 mb 0.00 in0.0 mm 0.00 in0.0 mm 0.01 in0.3 mm
07:45 AM 37.6°F3.1°C 27.6°F-2.4°C 67% 8.7 mph NW14.0 kmh NW 20.6 mph33.2 kmh 30.17 in1021.7 mb 0.00 in0.0 mm 0.00 in0.0 mm 0.01 in0.3 mm
07:40 AM 37.6°F3.1°C 27.6°F-2.4°C 67% 5.3 mph NW8.5 kmh NW 15.9 mph25.6 kmh 30.17 in1021.7 mb 0.00 in0.0 mm 0.00 in0.0 mm 0.01 in0.3 mm
07:35 AM 37.6°F3.1°C 27.6°F-2.4°C 67% 7.0 mph WNW11.3 kmh WNW 13.6 mph21.9 kmh 30.16 in1021.3 mb 0.00 in0.0 mm 0.00 in0.0 mm 0.01 in0.3 mm
07:30 AM 37.6°F3.1°C 27.6°F-2.4°C 67% 6.0 mph NW9.7 kmh NW 11.4 mph18.3 kmh 30.16 in1021.3 mb 0.00 in0.0 mm 0.00 in0.0 mm 0.01 in0.3 mm
07:25 AM 37.7°F3.2°C 27.6°F-2.4°C 67% 8.9 mph NW14.3 kmh NW 17.4 mph28.0 kmh 30.16 in1021.3 mb 0.00 in0.0 mm 0.00 in0.0 mm 0.01 in0.3 mm
07:20 AM 37.8°F3.2°C 27.4°F-2.6°C 66% 6.4 mph NNW10.3 kmh NNW 15.9 mph25.6 kmh 30.16 in1021.3 mb 0.00 in0.0 mm 0.00 in0.0 mm 0.01 in0.3 mm
07:15 AM 37.8°F3.2°C 27.4°F-2.6°C 66% 10.1 mph WNW16.3 kmh WNW 24.4 mph39.3 kmh 30.15 in1021.0 mb 0.00 in0.0 mm 0.00 in0.0 mm 0.01 in0.3 mm
07:10 AM 37.8°F3.2°C 27.4°F-2.6°C 66% 7.0 mph NNW11.3 kmh NNW 15.9 mph25.6 kmh 30.15 in1021.0 mb 0.00 in0.0 mm 0.00 in0.0 mm 0.01 in0.3 mm
07:05 AM 37.8°F3.2°C 27.5°F-2.5°C 66% 6.3 mph NW10.1 kmh NW 13.6 mph21.9 kmh 30.15 in1021.0 mb 0.00 in0.0 mm 0.00 in0.0 mm 0.01 in0.3 mm
07:00 AM 37.9°F3.3°C 27.6°F-2.4°C 66% 5.1 mph NNE8.2 kmh NNE 12.1 mph19.5 kmh 30.15 in1021.0 mb 0.00 in0.0 mm 0.00 in0.0 mm 0.01 in0.3 mm
06:55 AM 38.0°F3.3°C 27.7°F-2.4°C 66% 8.8 mph NW14.2 kmh NW 22.1 mph35.6 kmh 30.15 in1021.0 mb 0.00 in0.0 mm 0.00 in0.0 mm 0.01 in0.3 mm
06:50 AM 38.1°F3.4°C 27.8°F-2.3°C 66% 7.4 mph WNW11.9 kmh WNW 18.3 mph29.5 kmh 30.14 in1020.7 mb 0.00 in0.0 mm 0.00 in0.0 mm 0.01 in0.3 mm
06:45 AM 38.3°F3.5°C 27.9°F-2.3°C 66% 8.4 mph N13.5 kmh N 22.1 mph35.6 kmh 30.13 in1020.3 mb 0.00 in0.0 mm 0.00 in0.0 mm 0.01 in0.3 mm
06:40 AM 38.3°F3.5°C 28.0°F-2.2°C 66% 12.8 mph NW20.6 kmh NW 23.5 mph37.8 kmh 30.13 in1020.3 mb 0.00 in0.0 mm 0.00 in0.0 mm 0.01 in0.3 mm
06:35 AM 38.3°F3.5°C 28.2°F-2.1°C 67% 13.8 mph NW22.2 kmh NW 23.5 mph37.8 kmh 30.12 in1020.0 mb 0.00 in0.0 mm 0.00 in0.0 mm 0.01 in0.3 mm
06:30 AM 38.3°F3.5°C 28.3°F-2.1°C 67% 12.5 mph NW20.1 kmh NW 23.5 mph37.8 kmh 30.12 in1020.0 mb 0.00 in0.0 mm 0.00 in0.0 mm 0.01 in0.3 mm
06:25 AM 38.3°F3.5°C 28.7°F-1.8°C 68% 12.6 mph NW20.3 kmh NW 30.4 mph48.9 kmh 30.12 in1020.0 mb 0.00 in0.0 mm 0.00 in0.0 mm 0.01 in0.3 mm
06:20 AM 38.4°F3.6°C 28.8°F-1.8°C 68% 10.0 mph NW16.1 kmh NW 19.7 mph31.7 kmh 30.12 in1020.0 mb 0.00 in0.0 mm 0.00 in0.0 mm 0.01 in0.3 mm
06:15 AM 38.5°F3.6°C 28.9°F-1.7°C 68% 7.3 mph N11.7 kmh N 13.0 mph20.9 kmh 30.12 in1020.0 mb 0.00 in0.0 mm 0.00 in0.0 mm 0.01 in0.3 mm
06:10 AM 38.6°F3.7°C 29.0°F-1.7°C 68% 9.6 mph NW15.4 kmh NW 16.8 mph27.0 kmh 30.12 in1020.0 mb 0.00 in0.0 mm 0.00 in0.0 mm 0.01 in0.3 mm
06:05 AM 38.7°F3.7°C 29.0°F-1.7°C 68% 10.7 mph NW17.2 kmh NW 16.8 mph27.0 kmh 30.11 in1019.6 mb 0.00 in0.0 mm 0.00 in0.0 mm 0.01 in0.3 mm
06:00 AM 38.7°F3.7°C 29.0°F-1.7°C 68% 7.1 mph NW11.4 kmh NW 16.8 mph27.0 kmh 30.11 in1019.6 mb 0.00 in0.0 mm 0.00 in0.0 mm 0.01 in0.3 mm
05:55 AM 38.8°F3.8°C 29.2°F-1.6°C 68% 6.6 mph NNW10.6 kmh NNW 13.6 mph21.9 kmh 30.11 in1019.6 mb 0.00 in0.0 mm 0.00 in0.0 mm 0.01 in0.3 mm
05:50 AM 38.8°F3.8°C 29.2°F-1.6°C 68% 9.5 mph NW15.3 kmh NW 21.3 mph34.3 kmh 30.10 in1019.3 mb 0.00 in0.0 mm 0.00 in0.0 mm 0.01 in0.3 mm
05:45 AM 38.9°F3.8°C 29.3°F-1.5°C 68% 6.4 mph NW10.3 kmh NW 10.7 mph17.2 kmh 30.10 in1019.3 mb 0.00 in0.0 mm 0.00 in0.0 mm 0.01 in0.3 mm
05:40 AM 39.0°F3.9°C 29.1°F-1.6°C 67% 8.0 mph NW12.9 kmh NW 13.0 mph20.9 kmh 30.09 in1019.0 mb 0.00 in0.0 mm 0.00 in0.0 mm 0.01 in0.3 mm
05:35 AM 39.1°F3.9°C 28.9°F-1.7°C 67% 9.0 mph NW14.5 kmh NW 19.7 mph31.7 kmh 30.09 in1019.0 mb 0.00 in0.0 mm 0.00 in0.0 mm 0.01 in0.3 mm
05:30 AM 39.2°F4.0°C 28.8°F-1.8°C 66% 9.1 mph NNW14.6 kmh NNW 17.4 mph28.0 kmh 30.08 in1018.6 mb 0.00 in0.0 mm 0.00 in0.0 mm 0.01 in0.3 mm
05:25 AM 39.2°F4.0°C 28.8°F-1.8°C 66% 11.8 mph NW19.0 kmh NW 23.5 mph37.8 kmh 30.08 in1018.6 mb 0.00 in0.0 mm 0.00 in0.0 mm 0.01 in0.3 mm
05:20 AM 39.2°F4.0°C 28.8°F-1.8°C 66% 9.5 mph NW15.3 kmh NW 20.6 mph33.2 kmh 30.08 in1018.6 mb 0.00 in0.0 mm 0.00 in0.0 mm 0.01 in0.3 mm
05:15 AM 39.3°F4.1°C 28.6°F-1.9°C 65% 8.0 mph WNW12.9 kmh WNW 19.0 mph30.6 kmh 30.08 in1018.6 mb 0.00 in0.0 mm 0.00 in0.0 mm 0.01 in0.3 mm
05:10 AM 39.4°F4.1°C 28.6°F-1.9°C 65% 8.1 mph WNW13.0 kmh WNW 18.3 mph29.5 kmh 30.07 in1018.3 mb 0.00 in0.0 mm 0.00 in0.0 mm 0.01 in0.3 mm
05:05 AM 39.5°F4.2°C 28.7°F-1.8°C 65% 9.3 mph NW15.0 kmh NW 18.3 mph29.5 kmh 30.07 in1018.3 mb 0.00 in0.0 mm 0.00 in0.0 mm 0.01 in0.3 mm
05:00 AM 39.6°F4.2°C 28.8°F-1.8°C 65% 9.7 mph NW15.6 kmh NW 25.1 mph40.4 kmh 30.07 in1018.3 mb 0.00 in0.0 mm 0.00 in0.0 mm 0.01 in0.3 mm
04:55 AM 39.8°F4.3°C 29.0°F-1.7°C 65% 7.7 mph N12.4 kmh N 15.2 mph24.5 kmh 30.07 in1018.3 mb 0.00 in0.0 mm 0.00 in0.0 mm 0.01 in0.3 mm
04:50 AM 39.9°F4.4°C 29.1°F-1.6°C 65% 8.8 mph WNW14.2 kmh WNW 19.7 mph31.7 kmh 30.07 in1018.3 mb 0.00 in0.0 mm 0.00 in0.0 mm 0.01 in0.3 mm
04:45 AM 40.1°F4.5°C 29.3°F-1.5°C 65% 6.7 mph NW10.8 kmh NW 14.5 mph23.3 kmh 30.07 in1018.3 mb 0.00 in0.0 mm 0.00 in0.0 mm 0.01 in0.3 mm
04:40 AM 40.4°F4.7°C 29.6°F-1.3°C 65% 8.2 mph NW13.2 kmh NW 16.8 mph27.0 kmh 30.06 in1017.9 mb 0.00 in0.0 mm 0.00 in0.0 mm 0.01 in0.3 mm
04:35 AM 40.6°F4.8°C 29.7°F-1.3°C 65% 11.1 mph NW17.9 kmh NW 22.1 mph35.6 kmh 30.06 in1017.9 mb 0.00 in0.0 mm 0.00 in0.0 mm 0.01 in0.3 mm
04:30 AM 40.6°F4.8°C 29.8°F-1.2°C 65% 13.7 mph NW22.0 kmh NW 28.9 mph46.5 kmh 30.06 in1017.9 mb 0.00 in0.0 mm 0.00 in0.0 mm 0.01 in0.3 mm
04:25 AM 40.8°F4.9°C 30.0°F-1.1°C 65% 7.5 mph NW12.1 kmh NW 15.2 mph24.5 kmh 30.06 in1017.9 mb 0.00 in0.0 mm 0.00 in0.0 mm 0.01 in0.3 mm
04:20 AM 41.0°F5.0°C 29.8°F-1.2°C 64% 8.3 mph WNW13.4 kmh WNW 18.3 mph29.5 kmh 30.05 in1017.6 mb 0.00 in0.0 mm 0.00 in0.0 mm 0.01 in0.3 mm
04:15 AM 41.0°F5.0°C 29.8°F-1.2°C 64% 10.5 mph NNW16.9 kmh NNW 25.1 mph40.4 kmh 30.05 in1017.6 mb 0.00 in0.0 mm 0.00 in0.0 mm 0.01 in0.3 mm
04:10 AM 41.1°F5.1°C 30.3°F-0.9°C 65% 10.5 mph W16.9 kmh W 25.1 mph40.4 kmh 30.04 in1017.3 mb 0.00 in0.0 mm 0.00 in0.0 mm 0.01 in0.3 mm
04:05 AM 41.2°F5.1°C 30.7°F-0.7°C 66% 9.8 mph WNW15.8 kmh WNW 13.6 mph21.9 kmh 30.04 in1017.3 mb 0.00 in0.0 mm 0.00 in0.0 mm 0.01 in0.3 mm
04:00 AM 41.2°F5.1°C 30.7°F-0.7°C 66% 8.9 mph NW14.3 kmh NW 24.4 mph39.3 kmh 30.03 in1016.9 mb 0.00 in0.0 mm 0.00 in0.0 mm 0.01 in0.3 mm
03:55 AM 41.4°F5.2°C 30.9°F-0.6°C 66% 9.1 mph NW14.6 kmh NW 19.7 mph31.7 kmh 30.03 in1016.9 mb 0.00 in0.0 mm 0.00 in0.0 mm 0.01 in0.3 mm
03:50 AM 41.4°F5.2°C 30.9°F-0.6°C 66% 8.0 mph N12.9 kmh N 16.8 mph27.0 kmh 30.03 in1016.9 mb 0.00 in0.0 mm 0.00 in0.0 mm 0.01 in0.3 mm
03:45 AM 41.4°F5.2°C 30.8°F-0.7°C 66% 10.4 mph ENE16.7 kmh ENE 22.1 mph35.6 kmh 30.02 in1016.6 mb 0.00 in0.0 mm 0.00 in0.0 mm 0.01 in0.3 mm
03:40 AM 41.6°F5.3°C 31.1°F-0.5°C 66% 8.3 mph NW13.4 kmh NW 17.4 mph28.0 kmh 30.01 in1016.3 mb 0.00 in0.0 mm 0.00 in0.0 mm 0.01 in0.3 mm
03:35 AM 41.8°F5.4°C 31.5°F-0.3°C 66% 5.2 mph N8.4 kmh N 13.0 mph20.9 kmh 30.00 in1015.9 mb 0.00 in0.0 mm 0.00 in0.0 mm 0.01 in0.3 mm
03:30 AM 42.0°F5.6°C 31.9°F-0.1°C 67% 5.7 mph N9.2 kmh N 16.8 mph27.0 kmh 30.00 in1015.9 mb 0.00 in0.0 mm 0.00 in0.0 mm 0.01 in0.3 mm
03:25 AM 42.1°F5.6°C 32.0°F0.0°C 67% 7.8 mph WNW12.6 kmh WNW 17.4 mph28.0 kmh 30.00 in1015.9 mb 0.00 in0.0 mm 0.00 in0.0 mm 0.01 in0.3 mm
03:20 AM 42.3°F5.7°C 32.1°F0.1°C 67% 5.8 mph NW9.3 kmh NW 13.6 mph21.9 kmh 30.00 in1015.9 mb 0.00 in0.0 mm 0.00 in0.0 mm 0.01 in0.3 mm
03:15 AM 42.3°F5.7°C 32.4°F0.2°C 68% 8.2 mph W13.2 kmh W 25.1 mph40.4 kmh 30.00 in1015.9 mb 0.00 in0.0 mm 0.00 in0.0 mm 0.01 in0.3 mm
03:10 AM 42.3°F5.7°C 32.5°F0.3°C 68% 8.0 mph NNW12.9 kmh NNW 17.4 mph28.0 kmh 29.99 in1015.6 mb 0.00 in0.0 mm 0.00 in0.0 mm 0.01 in0.3 mm
03:05 AM 42.4°F5.8°C 33.0°F0.6°C 69% 9.5 mph WNW15.3 kmh WNW 19.7 mph31.7 kmh 29.99 in1015.6 mb 0.00 in0.0 mm 0.00 in0.0 mm 0.01 in0.3 mm
03:00 AM 42.4°F5.8°C 33.4°F0.8°C 70% 7.8 mph NNW12.6 kmh NNW 22.1 mph35.6 kmh 29.98 in1015.2 mb 0.00 in0.0 mm 0.00 in0.0 mm 0.01 in0.3 mm
02:55 AM 42.6°F5.9°C 33.4°F0.8°C 70% 7.8 mph NW12.6 kmh NW 14.5 mph23.3 kmh 29.97 in1014.9 mb 0.00 in0.0 mm 0.00 in0.0 mm 0.01 in0.3 mm
02:50 AM 42.6°F5.9°C 33.5°F0.8°C 70% 7.3 mph N11.7 kmh N 14.5 mph23.3 kmh 29.96 in1014.6 mb 0.00 in0.0 mm 0.00 in0.0 mm 0.01 in0.3 mm
02:45 AM 42.8°F6.0°C 33.3°F0.7°C 69% 9.4 mph NW15.1 kmh NW 21.3 mph34.3 kmh 29.96 in1014.6 mb 0.00 in0.0 mm 0.00 in0.0 mm 0.01 in0.3 mm
02:40 AM 42.9°F6.1°C 33.6°F0.9°C 69% 9.7 mph N15.6 kmh N 30.4 mph48.9 kmh 29.95 in1014.2 mb 0.00 in0.0 mm 0.00 in0.0 mm 0.01 in0.3 mm
02:35 AM 43.0°F6.1°C 33.7°F0.9°C 70% 9.4 mph NW15.1 kmh NW 34.2 mph55.0 kmh 29.95 in1014.2 mb 0.00 in0.0 mm 0.00 in0.0 mm 0.01 in0.3 mm
02:30 AM 43.1°F6.2°C 33.8°F1.0°C 70% 10.3 mph NW16.6 kmh NW 19.7 mph31.7 kmh 29.94 in1013.9 mb 0.00 in0.0 mm 0.00 in0.0 mm 0.01 in0.3 mm
02:25 AM 43.2°F6.2°C 34.0°F1.1°C 70% 11.3 mph W18.2 kmh W 19.0 mph30.6 kmh 29.94 in1013.9 mb 0.00 in0.0 mm 0.00 in0.0 mm 0.01 in0.3 mm
02:20 AM 43.3°F6.3°C 34.2°F1.2°C 70% 10.7 mph NW17.2 kmh NW 30.4 mph48.9 kmh 29.93 in1013.5 mb 0.00 in0.0 mm 0.00 in0.0 mm 0.01 in0.3 mm
02:15 AM 43.4°F6.3°C 34.3°F1.3°C 70% 12.6 mph WNW20.3 kmh WNW 25.9 mph41.7 kmh 29.93 in1013.5 mb 0.00 in0.0 mm 0.00 in0.0 mm 0.01 in0.3 mm
02:10 AM 43.6°F6.4°C 34.7°F1.5°C 71% 13.1 mph WNW21.1 kmh WNW 23.5 mph37.8 kmh 29.93 in1013.5 mb 0.00 in0.0 mm 0.00 in0.0 mm 0.01 in0.3 mm
02:05 AM 43.7°F6.5°C 34.9°F1.6°C 71% 14.5 mph W23.3 kmh W 20.6 mph33.2 kmh 29.91 in1012.9 mb 0.00 in0.0 mm 0.00 in0.0 mm 0.01 in0.3 mm
02:00 AM 43.8°F6.6°C 35.0°F1.7°C 71% 11.6 mph WNW18.7 kmh WNW 23.5 mph37.8 kmh 29.91 in1012.9 mb 0.00 in0.0 mm 0.00 in0.0 mm 0.01 in0.3 mm
01:55 AM 43.9°F6.6°C 35.3°F1.8°C 71% 13.3 mph NW21.4 kmh NW 27.3 mph43.9 kmh 29.91 in1012.9 mb 0.00 in0.0 mm 0.00 in0.0 mm 0.01 in0.3 mm
01:50 AM 44.1°F6.7°C 35.7°F2.1°C 72% 15.0 mph NW24.1 kmh NW 30.4 mph48.9 kmh 29.90 in1012.5 mb 0.00 in0.0 mm 0.00 in0.0 mm 0.01 in0.3 mm
01:45 AM 44.3°F6.8°C 35.9°F2.2°C 72% 12.8 mph WNW20.6 kmh WNW 22.1 mph35.6 kmh 29.90 in1012.5 mb 0.00 in0.0 mm 0.00 in0.0 mm 0.01 in0.3 mm
01:40 AM 44.4°F6.9°C 36.2°F2.3°C 73% 15.2 mph NNW24.5 kmh NNW 28.9 mph46.5 kmh 29.89 in1012.2 mb 0.00 in0.0 mm 0.00 in0.0 mm 0.01 in0.3 mm
01:35 AM 44.6°F7.0°C 36.1°F2.3°C 72% 14.6 mph WNW23.5 kmh WNW 23.5 mph37.8 kmh 29.89 in1012.2 mb 0.01 in0.3 mm 0.00 in0.0 mm 0.01 in0.3 mm
01:30 AM 44.6°F7.0°C 36.4°F2.4°C 73% 14.5 mph W23.3 kmh W 31.1 mph50.1 kmh 29.89 in1012.2 mb 0.01 in0.3 mm 0.00 in0.0 mm 0.01 in0.3 mm
01:25 AM 44.7°F7.1°C 36.8°F2.7°C 74% 14.3 mph NW23.0 kmh NW 24.4 mph39.3 kmh 29.88 in1011.9 mb 0.01 in0.3 mm 0.00 in0.0 mm 0.01 in0.3 mm
01:20 AM 44.8°F7.1°C 37.2°F2.9°C 74% 13.2 mph WNW21.2 kmh WNW 23.5 mph37.8 kmh 29.88 in1011.9 mb 0.01 in0.3 mm 0.00 in0.0 mm 0.01 in0.3 mm
01:15 AM 45.1°F7.3°C 38.0°F3.3°C 76% 9.1 mph NNW14.6 kmh NNW 20.6 mph33.2 kmh 29.87 in1011.5 mb 0.01 in0.3 mm 0.00 in0.0 mm 0.01 in0.3 mm
01:10 AM 45.4°F7.4°C 39.1°F3.9°C 78% 12.5 mph NW20.1 kmh NW 23.5 mph37.8 kmh 29.87 in1011.5 mb 0.01 in0.3 mm 0.00 in0.0 mm 0.01 in0.3 mm
01:05 AM 45.7°F7.6°C 40.2°F4.6°C 81% 9.1 mph NW14.6 kmh NW 20.6 mph33.2 kmh 29.86 in1011.2 mb 0.01 in0.3 mm 0.00 in0.0 mm 0.01 in0.3 mm
01:00 AM 46.0°F7.8°C 40.5°F4.7°C 81% 7.6 mph WNW12.2 kmh WNW 14.5 mph23.3 kmh 29.88 in1011.9 mb 0.01 in0.3 mm 0.00 in0.0 mm 0.01 in0.3 mm
12:55 AM 46.0°F7.8°C 40.5°F4.7°C 81% 8.1 mph NW13.0 kmh NW 20.6 mph33.2 kmh 29.88 in1011.9 mb 0.01 in0.3 mm 0.00 in0.0 mm 0.01 in0.3 mm
12:50 AM 46.2°F7.9°C 40.5°F4.7°C 80% 7.9 mph N12.7 kmh N 18.3 mph29.5 kmh 29.86 in1011.2 mb 0.01 in0.3 mm 0.00 in0.0 mm 0.01 in0.3 mm
12:45 AM 46.5°F8.1°C 40.3°F4.6°C 79% 8.9 mph E14.3 kmh E 20.6 mph33.2 kmh 29.85 in1010.8 mb 0.01 in0.3 mm 0.00 in0.0 mm 0.01 in0.3 mm
12:40 AM 46.7°F8.2°C 40.5°F4.7°C 79% 8.2 mph N13.2 kmh N 18.3 mph29.5 kmh 29.84 in1010.5 mb 0.02 in0.5 mm 0.12 in3.0 mm 0.01 in0.3 mm
12:35 AM 46.9°F8.3°C 40.8°F4.9°C 79% 9.8 mph NW15.8 kmh NW 19.7 mph31.7 kmh 29.84 in1010.5 mb 0.01 in0.3 mm 0.00 in0.0 mm 0.04 in1.0 mm
12:30 AM 46.9°F8.3°C 40.8°F4.9°C 79% 9.7 mph NW15.6 kmh NW 21.3 mph34.3 kmh 29.84 in1010.5 mb 0.01 in0.3 mm 0.00 in0.0 mm 0.04 in1.0 mm
12:25 AM 47.0°F8.3°C 40.8°F4.9°C 79% 12.2 mph NW19.6 kmh NW 26.6 mph42.8 kmh 29.83 in1010.2 mb 0.04 in1.0 mm 0.00 in0.0 mm 0.04 in1.0 mm
12:20 AM 47.1°F8.4°C 40.9°F4.9°C 79% 14.1 mph NW22.7 kmh NW 28.2 mph45.4 kmh 29.82 in1009.8 mb 0.04 in1.0 mm 0.00 in0.0 mm 0.04 in1.0 mm
12:15 AM 47.1°F8.4°C 40.9°F4.9°C 79% 15.7 mph WNW25.3 kmh WNW 28.9 mph46.5 kmh 29.80 in1009.1 mb 0.04 in1.0 mm 0.00 in0.0 mm 0.04 in1.0 mm
12:10 AM 47.6°F8.7°C 41.4°F5.2°C 79% 19.1 mph NW30.7 kmh NW 28.2 mph45.4 kmh 29.79 in1008.8 mb 0.04 in1.0 mm 0.00 in0.0 mm 0.04 in1.0 mm
12:05 AM 47.7°F8.7°C 41.5°F5.3°C 79% 18.3 mph NW29.5 kmh NW 26.6 mph42.8 kmh 29.80 in1009.1 mb 0.04 in1.0 mm 0.00 in0.0 mm 0.04 in1.0 mm
12:00 AM 47.8°F8.8°C 41.6°F5.3°C 79% 20.2 mph NW32.5 kmh NW 32.7 mph52.6 kmh 29.80 in1009.1 mb 0.04 in1.0 mm 0.00 in0.0 mm 0.04 in1.0 mm